sensor_id;sensor_type;location;lat;lon;timestamp;temperature;humidity
33943;DHT22;66763;47.856;17.462;2024-02-21T00:01:34;11.80;53.10
33943;DHT22;66763;47.856;17.462;2024-02-21T00:04:00;11.70;53.00
33943;DHT22;66763;47.856;17.462;2024-02-21T00:06:25;11.80;53.10
33943;DHT22;66763;47.856;17.462;2024-02-21T00:08:51;11.70;53.00
33943;DHT22;66763;47.856;17.462;2024-02-21T00:11:17;11.70;53.00
33943;DHT22;66763;47.856;17.462;2024-02-21T00:13:42;11.70;53.00
33943;DHT22;66763;47.856;17.462;2024-02-21T00:16:08;11.70;53.10
33943;DHT22;66763;47.856;17.462;2024-02-21T00:18:33;11.80;53.10
33943;DHT22;66763;47.856;17.462;2024-02-21T00:20:58;11.70;53.10
33943;DHT22;66763;47.856;17.462;2024-02-21T00:23:27;11.70;53.10
33943;DHT22;66763;47.856;17.462;2024-02-21T00:25:52;11.70;53.10
33943;DHT22;66763;47.856;17.462;2024-02-21T00:28:18;11.70;53.10
33943;DHT22;66763;47.856;17.462;2024-02-21T00:30:43;11.70;53.10
33943;DHT22;66763;47.856;17.462;2024-02-21T00:33:09;11.70;53.00
33943;DHT22;66763;47.856;17.462;2024-02-21T00:35:34;11.70;53.10
33943;DHT22;66763;47.856;17.462;2024-02-21T00:38:00;11.70;53.00
33943;DHT22;66763;47.856;17.462;2024-02-21T00:40:26;11.70;53.10
33943;DHT22;66763;47.856;17.462;2024-02-21T00:42:51;11.70;53.10
33943;DHT22;66763;47.856;17.462;2024-02-21T00:45:16;11.70;53.00
33943;DHT22;66763;47.856;17.462;2024-02-21T00:47:42;11.70;53.10
33943;DHT22;66763;47.856;17.462;2024-02-21T00:50:08;11.70;53.00
33943;DHT22;66763;47.856;17.462;2024-02-21T00:52:34;11.80;53.10
33943;DHT22;66763;47.856;17.462;2024-02-21T00:55:00;11.70;53.10
33943;DHT22;66763;47.856;17.462;2024-02-21T00:57:25;11.70;53.00
33943;DHT22;66763;47.856;17.462;2024-02-21T00:59:51;11.80;53.10
33943;DHT22;66763;47.856;17.462;2024-02-21T01:02:16;11.70;53.10
33943;DHT22;66763;47.856;17.462;2024-02-21T01:04:42;11.70;53.10
33943;DHT22;66763;47.856;17.462;2024-02-21T01:07:07;11.70;53.10
33943;DHT22;66763;47.856;17.462;2024-02-21T01:09:33;11.80;53.10
33943;DHT22;66763;47.856;17.462;2024-02-21T01:11:58;11.70;53.10
33943;DHT22;66763;47.856;17.462;2024-02-21T01:14:24;11.80;53.10
33943;DHT22;66763;47.856;17.462;2024-02-21T01:16:49;11.70;53.20
33943;DHT22;66763;47.856;17.462;2024-02-21T01:19:14;11.70;53.10
33943;DHT22;66763;47.856;17.462;2024-02-21T01:21:40;11.80;53.10
33943;DHT22;66763;47.856;17.462;2024-02-21T01:24:05;11.70;53.20
33943;DHT22;66763;47.856;17.462;2024-02-21T01:26:31;11.70;53.10
33943;DHT22;66763;47.856;17.462;2024-02-21T01:28:56;11.70;53.10
33943;DHT22;66763;47.856;17.462;2024-02-21T01:31:22;11.80;53.10
33943;DHT22;66763;47.856;17.462;2024-02-21T01:33:47;11.80;53.10
33943;DHT22;66763;47.856;17.462;2024-02-21T01:36:13;11.80;53.10
33943;DHT22;66763;47.856;17.462;2024-02-21T01:38:38;11.70;53.10
33943;DHT22;66763;47.856;17.462;2024-02-21T01:41:04;11.70;53.10
33943;DHT22;66763;47.856;17.462;2024-02-21T01:43:29;11.70;53.10
33943;DHT22;66763;47.856;17.462;2024-02-21T01:45:55;11.70;53.10
33943;DHT22;66763;47.856;17.462;2024-02-21T01:48:24;11.70;53.10
33943;DHT22;66763;47.856;17.462;2024-02-21T01:50:50;11.70;53.10
33943;DHT22;66763;47.856;17.462;2024-02-21T01:53:16;11.70;53.10
33943;DHT22;66763;47.856;17.462;2024-02-21T01:55:47;11.70;53.10
33943;DHT22;66763;47.856;17.462;2024-02-21T01:58:15;11.70;53.10
33943;DHT22;66763;47.856;17.462;2024-02-21T02:00:44;11.70;53.10
33943;DHT22;66763;47.856;17.462;2024-02-21T02:03:11;11.70;53.10
33943;DHT22;66763;47.856;17.462;2024-02-21T02:05:45;11.70;53.20
33943;DHT22;66763;47.856;17.462;2024-02-21T02:08:15;11.70;53.10
33943;DHT22;66763;47.856;17.462;2024-02-21T02:10:40;11.70;53.30
33943;DHT22;66763;47.856;17.462;2024-02-21T02:13:06;11.70;53.20
33943;DHT22;66763;47.856;17.462;2024-02-21T02:16:05;11.70;53.10
33943;DHT22;66763;47.856;17.462;2024-02-21T02:18:23;11.70;53.10
33943;DHT22;66763;47.856;17.462;2024-02-21T02:20:49;11.80;53.20
33943;DHT22;66763;47.856;17.462;2024-02-21T02:23:28;11.70;53.10
33943;DHT22;66763;47.856;17.462;2024-02-21T02:25:54;11.70;53.10
33943;DHT22;66763;47.856;17.462;2024-02-21T02:28:20;11.70;53.10
33943;DHT22;66763;47.856;17.462;2024-02-21T02:30:46;11.70;53.10
33943;DHT22;66763;47.856;17.462;2024-02-21T02:33:11;11.70;53.70
33943;DHT22;66763;47.856;17.462;2024-02-21T02:35:37;11.70;53.10
33943;DHT22;66763;47.856;17.462;2024-02-21T02:38:03;11.70;53.10
33943;DHT22;66763;47.856;17.462;2024-02-21T02:40:28;11.70;53.10
33943;DHT22;66763;47.856;17.462;2024-02-21T02:42:54;11.70;53.10
33943;DHT22;66763;47.856;17.462;2024-02-21T02:45:23;11.70;53.10
33943;DHT22;66763;47.856;17.462;2024-02-21T02:47:49;11.70;53.10
33943;DHT22;66763;47.856;17.462;2024-02-21T02:50:14;11.70;53.10
33943;DHT22;66763;47.856;17.462;2024-02-21T02:52:40;11.70;53.10
33943;DHT22;66763;47.856;17.462;2024-02-21T02:55:06;11.70;53.20
33943;DHT22;66763;47.856;17.462;2024-02-21T02:57:32;11.70;53.10
33943;DHT22;66763;47.856;17.462;2024-02-21T02:59:57;11.70;53.10
33943;DHT22;66763;47.856;17.462;2024-02-21T03:02:23;11.70;53.10
33943;DHT22;66763;47.856;17.462;2024-02-21T03:04:49;11.70;53.10
33943;DHT22;66763;47.856;17.462;2024-02-21T03:07:14;11.70;53.10
33943;DHT22;66763;47.856;17.462;2024-02-21T03:09:40;11.70;53.10
33943;DHT22;66763;47.856;17.462;2024-02-21T03:12:06;11.70;53.10
33943;DHT22;66763;47.856;17.462;2024-02-21T03:14:31;11.70;53.10
33943;DHT22;66763;47.856;17.462;2024-02-21T03:17:00;11.70;53.20
33943;DHT22;66763;47.856;17.462;2024-02-21T03:19:26;11.70;53.10
33943;DHT22;66763;47.856;17.462;2024-02-21T03:21:51;11.70;53.20
33943;DHT22;66763;47.856;17.462;2024-02-21T03:24:18;11.70;53.20
33943;DHT22;66763;47.856;17.462;2024-02-21T03:26:43;11.70;53.30
33943;DHT22;66763;47.856;17.462;2024-02-21T03:29:10;11.70;53.10
33943;DHT22;66763;47.856;17.462;2024-02-21T03:31:36;11.70;53.10
33943;DHT22;66763;47.856;17.462;2024-02-21T03:34:02;11.70;53.20
33943;DHT22;66763;47.856;17.462;2024-02-21T03:36:27;11.70;53.30
33943;DHT22;66763;47.856;17.462;2024-02-21T03:38:54;11.60;53.20
33943;DHT22;66763;47.856;17.462;2024-02-21T03:41:20;11.70;53.20
33943;DHT22;66763;47.856;17.462;2024-02-21T03:43:45;11.70;53.20
33943;DHT22;66763;47.856;17.462;2024-02-21T03:46:10;11.70;53.20
33943;DHT22;66763;47.856;17.462;2024-02-21T03:48:36;11.70;53.20
33943;DHT22;66763;47.856;17.462;2024-02-21T03:51:02;11.70;53.90
33943;DHT22;66763;47.856;17.462;2024-02-21T03:53:27;11.70;53.30
33943;DHT22;66763;47.856;17.462;2024-02-21T03:55:53;11.70;53.30
33943;DHT22;66763;47.856;17.462;2024-02-21T03:58:19;11.60;53.20
33943;DHT22;66763;47.856;17.462;2024-02-21T04:00:45;11.60;53.20
33943;DHT22;66763;47.856;17.462;2024-02-21T04:03:10;11.70;53.20
33943;DHT22;66763;47.856;17.462;2024-02-21T04:05:36;11.70;53.20
33943;DHT22;66763;47.856;17.462;2024-02-21T04:08:04;11.70;53.30
33943;DHT22;66763;47.856;17.462;2024-02-21T04:10:30;11.70;53.10
33943;DHT22;66763;47.856;17.462;2024-02-21T04:12:55;11.60;53.10
33943;DHT22;66763;47.856;17.462;2024-02-21T04:15:21;11.70;53.10
33943;DHT22;66763;47.856;17.462;2024-02-21T04:17:46;11.70;53.10
33943;DHT22;66763;47.856;17.462;2024-02-21T04:20:15;11.70;53.20
33943;DHT22;66763;47.856;17.462;2024-02-21T04:22:44;11.70;53.20
33943;DHT22;66763;47.856;17.462;2024-02-21T04:25:12;11.70;53.10
33943;DHT22;66763;47.856;17.462;2024-02-21T04:27:38;11.70;53.10
33943;DHT22;66763;47.856;17.462;2024-02-21T04:30:04;11.60;53.10
33943;DHT22;66763;47.856;17.462;2024-02-21T04:32:30;11.60;53.10
33943;DHT22;66763;47.856;17.462;2024-02-21T04:34:55;11.60;53.20
33943;DHT22;66763;47.856;17.462;2024-02-21T04:37:21;11.60;53.10
33943;DHT22;66763;47.856;17.462;2024-02-21T04:39:48;11.70;53.20
33943;DHT22;66763;47.856;17.462;2024-02-21T04:42:13;11.70;53.20
33943;DHT22;66763;47.856;17.462;2024-02-21T04:44:39;11.60;53.20
33943;DHT22;66763;47.856;17.462;2024-02-21T04:47:04;11.60;53.20
33943;DHT22;66763;47.856;17.462;2024-02-21T04:49:30;11.60;53.10
33943;DHT22;66763;47.856;17.462;2024-02-21T04:51:55;11.60;53.20
33943;DHT22;66763;47.856;17.462;2024-02-21T04:54:21;11.60;53.10
33943;DHT22;66763;47.856;17.462;2024-02-21T04:56:46;11.60;53.20
33943;DHT22;66763;47.856;17.462;2024-02-21T04:59:12;11.60;53.10
33943;DHT22;66763;47.856;17.462;2024-02-21T05:01:37;11.60;53.10
33943;DHT22;66763;47.856;17.462;2024-02-21T05:04:03;11.60;53.10
33943;DHT22;66763;47.856;17.462;2024-02-21T05:06:28;11.60;53.10
33943;DHT22;66763;47.856;17.462;2024-02-21T05:08:54;11.60;53.10
33943;DHT22;66763;47.856;17.462;2024-02-21T05:11:21;11.60;53.20
33943;DHT22;66763;47.856;17.462;2024-02-21T05:13:46;11.60;53.10
33943;DHT22;66763;47.856;17.462;2024-02-21T05:16:12;11.60;53.10
33943;DHT22;66763;47.856;17.462;2024-02-21T05:18:37;11.60;53.20
33943;DHT22;66763;47.856;17.462;2024-02-21T05:21:03;11.60;53.10
33943;DHT22;66763;47.856;17.462;2024-02-21T05:23:28;11.60;53.10
33943;DHT22;66763;47.856;17.462;2024-02-21T05:25:54;11.60;53.20
33943;DHT22;66763;47.856;17.462;2024-02-21T05:28:19;11.60;53.20
33943;DHT22;66763;47.856;17.462;2024-02-21T05:30:45;11.60;53.10
33943;DHT22;66763;47.856;17.462;2024-02-21T05:33:10;11.60;53.20
33943;DHT22;66763;47.856;17.462;2024-02-21T05:35:36;11.60;53.10
33943;DHT22;66763;47.856;17.462;2024-02-21T05:38:02;11.60;53.20
33943;DHT22;66763;47.856;17.462;2024-02-21T05:40:31;11.60;53.10
33943;DHT22;66763;47.856;17.462;2024-02-21T05:42:57;11.60;53.10
33943;DHT22;66763;47.856;17.462;2024-02-21T05:45:23;11.60;53.20
33943;DHT22;66763;47.856;17.462;2024-02-21T05:47:48;11.60;53.20
33943;DHT22;66763;47.856;17.462;2024-02-21T05:50:13;11.60;53.10
33943;DHT22;66763;47.856;17.462;2024-02-21T05:52:39;11.60;53.20
33943;DHT22;66763;47.856;17.462;2024-02-21T05:55:06;11.60;53.10
33943;DHT22;66763;47.856;17.462;2024-02-21T05:57:31;11.60;53.10
33943;DHT22;66763;47.856;17.462;2024-02-21T05:59:57;11.60;53.10
33943;DHT22;66763;47.856;17.462;2024-02-21T06:02:22;11.60;53.20
33943;DHT22;66763;47.856;17.462;2024-02-21T06:04:48;11.60;53.20
33943;DHT22;66763;47.856;17.462;2024-02-21T06:07:13;11.60;53.20
33943;DHT22;66763;47.856;17.462;2024-02-21T06:09:39;11.50;53.10
33943;DHT22;66763;47.856;17.462;2024-02-21T06:12:04;11.60;53.20
33943;DHT22;66763;47.856;17.462;2024-02-21T06:14:30;11.60;53.10
33943;DHT22;66763;47.856;17.462;2024-02-21T06:16:55;11.60;53.10
33943;DHT22;66763;47.856;17.462;2024-02-21T06:19:21;11.60;53.10
33943;DHT22;66763;47.856;17.462;2024-02-21T06:21:46;11.60;53.10
33943;DHT22;66763;47.856;17.462;2024-02-21T06:24:12;11.60;53.10
33943;DHT22;66763;47.856;17.462;2024-02-21T06:26:38;11.60;53.20
33943;DHT22;66763;47.856;17.462;2024-02-21T06:29:05;11.60;53.20
33943;DHT22;66763;47.856;17.462;2024-02-21T06:31:31;11.60;53.10
33943;DHT22;66763;47.856;17.462;2024-02-21T06:33:57;11.60;53.10
33943;DHT22;66763;47.856;17.462;2024-02-21T06:36:22;11.60;53.10
33943;DHT22;66763;47.856;17.462;2024-02-21T06:38:48;11.60;53.10
33943;DHT22;66763;47.856;17.462;2024-02-21T06:41:16;11.60;53.20
33943;DHT22;66763;47.856;17.462;2024-02-21T06:43:44;11.60;53.10
33943;DHT22;66763;47.856;17.462;2024-02-21T06:46:10;11.60;53.10
33943;DHT22;66763;47.856;17.462;2024-02-21T06:48:35;11.60;53.10
33943;DHT22;66763;47.856;17.462;2024-02-21T06:51:01;11.60;53.10
33943;DHT22;66763;47.856;17.462;2024-02-21T06:53:26;11.60;53.10
33943;DHT22;66763;47.856;17.462;2024-02-21T06:55:51;11.60;53.10
33943;DHT22;66763;47.856;17.462;2024-02-21T06:58:17;11.60;53.10
33943;DHT22;66763;47.856;17.462;2024-02-21T07:00:42;11.60;53.10
33943;DHT22;66763;47.856;17.462;2024-02-21T07:03:08;11.60;53.10
33943;DHT22;66763;47.856;17.462;2024-02-21T07:05:33;11.60;53.20
33943;DHT22;66763;47.856;17.462;2024-02-21T07:07:59;11.60;53.30
33943;DHT22;66763;47.856;17.462;2024-02-21T07:10:24;11.60;53.20
33943;DHT22;66763;47.856;17.462;2024-02-21T07:12:50;11.60;53.20
33943;DHT22;66763;47.856;17.462;2024-02-21T07:15:17;11.60;53.20
33943;DHT22;66763;47.856;17.462;2024-02-21T07:17:42;11.60;53.10
33943;DHT22;66763;47.856;17.462;2024-02-21T07:20:08;11.60;53.10
33943;DHT22;66763;47.856;17.462;2024-02-21T07:22:34;11.60;53.10
33943;DHT22;66763;47.856;17.462;2024-02-21T07:24:59;11.60;53.10
33943;DHT22;66763;47.856;17.462;2024-02-21T07:27:24;11.60;53.10
33943;DHT22;66763;47.856;17.462;2024-02-21T07:29:53;11.60;53.20
33943;DHT22;66763;47.856;17.462;2024-02-21T07:32:19;11.60;53.20
33943;DHT22;66763;47.856;17.462;2024-02-21T07:34:44;11.60;53.20
33943;DHT22;66763;47.856;17.462;2024-02-21T07:37:10;11.60;53.20
33943;DHT22;66763;47.856;17.462;2024-02-21T07:39:36;11.60;53.20
33943;DHT22;66763;47.856;17.462;2024-02-21T07:42:02;11.60;53.10
33943;DHT22;66763;47.856;17.462;2024-02-21T07:44:28;11.60;53.20
33943;DHT22;66763;47.856;17.462;2024-02-21T07:46:53;11.60;53.20
33943;DHT22;66763;47.856;17.462;2024-02-21T07:49:19;11.50;53.20
33943;DHT22;66763;47.856;17.462;2024-02-21T07:51:44;11.50;53.20
33943;DHT22;66763;47.856;17.462;2024-02-21T07:54:10;11.60;53.20
33943;DHT22;66763;47.856;17.462;2024-02-21T07:56:35;11.70;53.10
33943;DHT22;66763;47.856;17.462;2024-02-21T07:59:01;11.80;53.10
33943;DHT22;66763;47.856;17.462;2024-02-21T08:01:26;11.90;53.00
33943;DHT22;66763;47.856;17.462;2024-02-21T08:03:52;12.00;53.10
33943;DHT22;66763;47.856;17.462;2024-02-21T08:06:17;12.10;52.90
33943;DHT22;66763;47.856;17.462;2024-02-21T08:08:43;12.20;52.70
33943;DHT22;66763;47.856;17.462;2024-02-21T08:11:08;12.30;52.60
33943;DHT22;66763;47.856;17.462;2024-02-21T08:13:34;12.40;52.50
33943;DHT22;66763;47.856;17.462;2024-02-21T08:16:00;12.50;52.40
33943;DHT22;66763;47.856;17.462;2024-02-21T08:18:25;12.50;52.30
33943;DHT22;66763;47.856;17.462;2024-02-21T08:20:51;12.50;52.30
33943;DHT22;66763;47.856;17.462;2024-02-21T08:23:16;12.60;52.10
33943;DHT22;66763;47.856;17.462;2024-02-21T08:25:42;12.60;52.00
33943;DHT22;66763;47.856;17.462;2024-02-21T08:28:08;12.70;51.90
33943;DHT22;66763;47.856;17.462;2024-02-21T08:30:33;12.80;51.90
33943;DHT22;66763;47.856;17.462;2024-02-21T08:32:59;12.80;51.90
33943;DHT22;66763;47.856;17.462;2024-02-21T08:35:24;12.80;51.70
33943;DHT22;66763;47.856;17.462;2024-02-21T08:37:50;12.90;51.70
33943;DHT22;66763;47.856;17.462;2024-02-21T08:40:15;12.90;51.70
33943;DHT22;66763;47.856;17.462;2024-02-21T08:42:46;13.00;51.60
33943;DHT22;66763;47.856;17.462;2024-02-21T08:45:12;13.00;51.60
33943;DHT22;66763;47.856;17.462;2024-02-21T08:47:40;13.00;51.50
33943;DHT22;66763;47.856;17.462;2024-02-21T08:50:06;13.00;51.50
33943;DHT22;66763;47.856;17.462;2024-02-21T08:52:32;13.00;51.50
33943;DHT22;66763;47.856;17.462;2024-02-21T08:54:57;13.00;51.50
33943;DHT22;66763;47.856;17.462;2024-02-21T08:57:23;13.00;51.50
33943;DHT22;66763;47.856;17.462;2024-02-21T08:59:48;13.00;51.50
33943;DHT22;66763;47.856;17.462;2024-02-21T09:02:14;12.90;51.50
33943;DHT22;66763;47.856;17.462;2024-02-21T09:04:43;12.90;51.50
33943;DHT22;66763;47.856;17.462;2024-02-21T09:07:11;12.90;51.60
33943;DHT22;66763;47.856;17.462;2024-02-21T09:09:37;12.90;51.60
33943;DHT22;66763;47.856;17.462;2024-02-21T09:12:08;12.90;51.60
33943;DHT22;66763;47.856;17.462;2024-02-21T09:14:34;12.90;51.70
33943;DHT22;66763;47.856;17.462;2024-02-21T09:17:00;12.90;51.70
33943;DHT22;66763;47.856;17.462;2024-02-21T09:19:25;12.80;51.70
33943;DHT22;66763;47.856;17.462;2024-02-21T09:21:50;12.80;51.80
33943;DHT22;66763;47.856;17.462;2024-02-21T09:24:17;12.80;51.90
33943;DHT22;66763;47.856;17.462;2024-02-21T09:26:42;12.80;51.90
33943;DHT22;66763;47.856;17.462;2024-02-21T09:29:08;12.70;51.90
33943;DHT22;66763;47.856;17.462;2024-02-21T09:31:33;12.70;51.90
33943;DHT22;66763;47.856;17.462;2024-02-21T09:33:59;12.70;52.00
33943;DHT22;66763;47.856;17.462;2024-02-21T09:36:24;12.70;52.00
33943;DHT22;66763;47.856;17.462;2024-02-21T09:38:50;12.70;52.10
33943;DHT22;66763;47.856;17.462;2024-02-21T09:41:16;12.70;52.10
33943;DHT22;66763;47.856;17.462;2024-02-21T09:43:45;12.70;52.20
33943;DHT22;66763;47.856;17.462;2024-02-21T09:46:17;12.60;52.20
33943;DHT22;66763;47.856;17.462;2024-02-21T09:48:58;12.60;52.20
33943;DHT22;66763;47.856;17.462;2024-02-21T09:51:29;12.60;52.30
33943;DHT22;66763;47.856;17.462;2024-02-21T09:53:57;12.60;52.30
33943;DHT22;66763;47.856;17.462;2024-02-21T09:56:23;12.60;52.40
33943;DHT22;66763;47.856;17.462;2024-02-21T09:58:48;12.60;52.30
33943;DHT22;66763;47.856;17.462;2024-02-21T10:01:14;12.60;52.30
33943;DHT22;66763;47.856;17.462;2024-02-21T10:03:39;12.50;52.30
33943;DHT22;66763;47.856;17.462;2024-02-21T10:06:05;12.50;52.30
33943;DHT22;66763;47.856;17.462;2024-02-21T10:08:30;12.50;52.40
33943;DHT22;66763;47.856;17.462;2024-02-21T10:10:56;12.50;52.40
33943;DHT22;66763;47.856;17.462;2024-02-21T10:13:25;12.50;52.40
33943;DHT22;66763;47.856;17.462;2024-02-21T10:16:04;12.50;52.40
33943;DHT22;66763;47.856;17.462;2024-02-21T10:18:30;12.50;52.40
33943;DHT22;66763;47.856;17.462;2024-02-21T10:21:05;12.50;52.50
33943;DHT22;66763;47.856;17.462;2024-02-21T10:23:41;12.50;52.50
33943;DHT22;66763;47.856;17.462;2024-02-21T10:26:07;12.50;52.50
33943;DHT22;66763;47.856;17.462;2024-02-21T10:28:32;12.50;52.60
33943;DHT22;66763;47.856;17.462;2024-02-21T10:30:58;12.50;52.50
33943;DHT22;66763;47.856;17.462;2024-02-21T10:33:23;12.40;52.50
33943;DHT22;66763;47.856;17.462;2024-02-21T10:35:50;12.40;52.50
33943;DHT22;66763;47.856;17.462;2024-02-21T10:38:16;12.50;52.50
33943;DHT22;66763;47.856;17.462;2024-02-21T10:40:42;12.40;52.50
33943;DHT22;66763;47.856;17.462;2024-02-21T10:43:09;12.40;52.50
33943;DHT22;66763;47.856;17.462;2024-02-21T10:45:37;12.40;52.50
33943;DHT22;66763;47.856;17.462;2024-02-21T10:48:11;12.40;52.50
33943;DHT22;66763;47.856;17.462;2024-02-21T10:50:43;12.40;52.60
33943;DHT22;66763;47.856;17.462;2024-02-21T10:55:58;12.40;52.50
33943;DHT22;66763;47.856;17.462;2024-02-21T10:58:27;12.40;52.70
33943;DHT22;66763;47.856;17.462;2024-02-21T11:00:55;12.40;52.60
33943;DHT22;66763;47.856;17.462;2024-02-21T11:03:21;12.30;52.50
33943;DHT22;66763;47.856;17.462;2024-02-21T11:05:46;12.40;52.60
33943;DHT22;66763;47.856;17.462;2024-02-21T11:08:12;12.30;52.60
33943;DHT22;66763;47.856;17.462;2024-02-21T11:10:38;12.30;52.50
33943;DHT22;66763;47.856;17.462;2024-02-21T11:15:32;12.30;52.60
33943;DHT22;66763;47.856;17.462;2024-02-21T11:17:58;12.40;52.60
33943;DHT22;66763;47.856;17.462;2024-02-21T11:20:35;12.30;52.50
33943;DHT22;66763;47.856;17.462;2024-02-21T11:23:01;12.30;52.50
33943;DHT22;66763;47.856;17.462;2024-02-21T11:25:27;12.30;52.70
33943;DHT22;66763;47.856;17.462;2024-02-21T11:28:00;12.30;52.60
33943;DHT22;66763;47.856;17.462;2024-02-21T11:30:26;12.30;52.60
33943;DHT22;66763;47.856;17.462;2024-02-21T11:32:59;12.30;52.60
33943;DHT22;66763;47.856;17.462;2024-02-21T11:35:24;12.30;52.60
33943;DHT22;66763;47.856;17.462;2024-02-21T11:37:50;12.30;52.60
33943;DHT22;66763;47.856;17.462;2024-02-21T11:40:15;12.30;52.60
33943;DHT22;66763;47.856;17.462;2024-02-21T11:42:41;12.30;52.60
33943;DHT22;66763;47.856;17.462;2024-02-21T11:45:06;12.30;52.60
33943;DHT22;66763;47.856;17.462;2024-02-21T11:47:34;12.30;52.70
33943;DHT22;66763;47.856;17.462;2024-02-21T11:49:59;12.20;52.60
33943;DHT22;66763;47.856;17.462;2024-02-21T11:52:25;12.20;52.60
33943;DHT22;66763;47.856;17.462;2024-02-21T11:54:51;12.30;52.60
33943;DHT22;66763;47.856;17.462;2024-02-21T11:57:17;12.30;52.60
33943;DHT22;66763;47.856;17.462;2024-02-21T11:59:44;12.20;52.60
33943;DHT22;66763;47.856;17.462;2024-02-21T12:02:09;12.30;52.60
33943;DHT22;66763;47.856;17.462;2024-02-21T12:04:35;12.20;52.60
33943;DHT22;66763;47.856;17.462;2024-02-21T12:07:00;12.20;52.60
33943;DHT22;66763;47.856;17.462;2024-02-21T12:09:29;12.20;52.60
33943;DHT22;66763;47.856;17.462;2024-02-21T12:11:58;12.20;52.60
33943;DHT22;66763;47.856;17.462;2024-02-21T12:14:24;12.20;52.60
33943;DHT22;66763;47.856;17.462;2024-02-21T12:16:50;12.20;52.60
33943;DHT22;66763;47.856;17.462;2024-02-21T12:19:16;12.20;52.60
33943;DHT22;66763;47.856;17.462;2024-02-21T12:21:42;12.20;52.60
33943;DHT22;66763;47.856;17.462;2024-02-21T12:24:20;12.20;52.60
33943;DHT22;66763;47.856;17.462;2024-02-21T12:26:46;12.20;52.60
33943;DHT22;66763;47.856;17.462;2024-02-21T12:29:11;12.20;52.60
33943;DHT22;66763;47.856;17.462;2024-02-21T12:31:37;12.20;52.90
33943;DHT22;66763;47.856;17.462;2024-02-21T12:34:02;12.20;52.70
33943;DHT22;66763;47.856;17.462;2024-02-21T12:36:29;12.20;52.70
33943;DHT22;66763;47.856;17.462;2024-02-21T12:38:55;12.20;52.70
33943;DHT22;66763;47.856;17.462;2024-02-21T12:41:20;12.20;52.70
33943;DHT22;66763;47.856;17.462;2024-02-21T12:43:46;12.20;52.70
33943;DHT22;66763;47.856;17.462;2024-02-21T12:46:12;12.20;52.70
33943;DHT22;66763;47.856;17.462;2024-02-21T12:48:38;12.20;52.70
33943;DHT22;66763;47.856;17.462;2024-02-21T12:51:03;12.20;52.70
33943;DHT22;66763;47.856;17.462;2024-02-21T12:53:29;12.20;52.70
33943;DHT22;66763;47.856;17.462;2024-02-21T12:55:55;12.20;52.70
33943;DHT22;66763;47.856;17.462;2024-02-21T12:58:21;12.20;52.70
33943;DHT22;66763;47.856;17.462;2024-02-21T13:00:47;12.20;52.70
33943;DHT22;66763;47.856;17.462;2024-02-21T13:03:12;12.20;52.70
33943;DHT22;66763;47.856;17.462;2024-02-21T13:05:39;12.20;52.70
33943;DHT22;66763;47.856;17.462;2024-02-21T13:08:05;12.10;52.60
33943;DHT22;66763;47.856;17.462;2024-02-21T13:10:31;12.20;52.70
33943;DHT22;66763;47.856;17.462;2024-02-21T13:12:58;12.20;52.70
33943;DHT22;66763;47.856;17.462;2024-02-21T13:15:24;12.20;52.70
33943;DHT22;66763;47.856;17.462;2024-02-21T13:17:49;12.20;52.70
33943;DHT22;66763;47.856;17.462;2024-02-21T13:20:17;12.10;52.60
33943;DHT22;66763;47.856;17.462;2024-02-21T13:22:42;12.10;52.70
33943;DHT22;66763;47.856;17.462;2024-02-21T13:25:08;12.10;52.60
33943;DHT22;66763;47.856;17.462;2024-02-21T13:27:33;12.10;52.70
33943;DHT22;66763;47.856;17.462;2024-02-21T13:29:59;12.10;52.60
33943;DHT22;66763;47.856;17.462;2024-02-21T13:32:27;12.10;52.70
33943;DHT22;66763;47.856;17.462;2024-02-21T13:34:52;12.10;52.60
33943;DHT22;66763;47.856;17.462;2024-02-21T13:37:18;12.10;52.70
33943;DHT22;66763;47.856;17.462;2024-02-21T13:39:43;12.10;52.70
33943;DHT22;66763;47.856;17.462;2024-02-21T13:42:09;12.10;52.70
33943;DHT22;66763;47.856;17.462;2024-02-21T13:44:35;12.10;52.70
33943;DHT22;66763;47.856;17.462;2024-02-21T13:47:01;12.10;52.70
33943;DHT22;66763;47.856;17.462;2024-02-21T13:49:27;12.10;52.70
33943;DHT22;66763;47.856;17.462;2024-02-21T13:51:53;12.10;52.70
33943;DHT22;66763;47.856;17.462;2024-02-21T13:54:19;12.10;52.70
33943;DHT22;66763;47.856;17.462;2024-02-21T13:56:45;12.10;52.70
33943;DHT22;66763;47.856;17.462;2024-02-21T13:59:11;12.10;52.70
33943;DHT22;66763;47.856;17.462;2024-02-21T14:01:37;12.10;52.70
33943;DHT22;66763;47.856;17.462;2024-02-21T14:04:02;12.10;52.70
33943;DHT22;66763;47.856;17.462;2024-02-21T14:06:29;12.10;52.70
33943;DHT22;66763;47.856;17.462;2024-02-21T14:08:54;12.10;52.70
33943;DHT22;66763;47.856;17.462;2024-02-21T14:11:20;12.10;52.70
33943;DHT22;66763;47.856;17.462;2024-02-21T14:13:45;12.10;52.70
33943;DHT22;66763;47.856;17.462;2024-02-21T14:16:11;12.10;52.70
33943;DHT22;66763;47.856;17.462;2024-02-21T14:18:39;12.10;52.80
33943;DHT22;66763;47.856;17.462;2024-02-21T14:21:07;12.10;52.70
33943;DHT22;66763;47.856;17.462;2024-02-21T14:23:33;12.10;52.70
33943;DHT22;66763;47.856;17.462;2024-02-21T14:25:59;12.10;52.70
33943;DHT22;66763;47.856;17.462;2024-02-21T14:28:24;12.10;52.80
33943;DHT22;66763;47.856;17.462;2024-02-21T14:30:50;12.10;52.80
33943;DHT22;66763;47.856;17.462;2024-02-21T14:33:19;12.00;52.70
33943;DHT22;66763;47.856;17.462;2024-02-21T14:35:44;12.10;52.80
33943;DHT22;66763;47.856;17.462;2024-02-21T14:38:10;12.10;52.80
33943;DHT22;66763;47.856;17.462;2024-02-21T14:40:35;12.10;52.80
33943;DHT22;66763;47.856;17.462;2024-02-21T14:43:00;12.10;52.80
33943;DHT22;66763;47.856;17.462;2024-02-21T14:45:26;12.10;53.40
33943;DHT22;66763;47.856;17.462;2024-02-21T14:47:51;12.10;52.80
33943;DHT22;66763;47.856;17.462;2024-02-21T14:50:17;12.10;52.80
33943;DHT22;66763;47.856;17.462;2024-02-21T14:52:42;12.00;52.70
33943;DHT22;66763;47.856;17.462;2024-02-21T14:55:09;12.00;52.80
33943;DHT22;66763;47.856;17.462;2024-02-21T14:57:34;12.00;52.70
33943;DHT22;66763;47.856;17.462;2024-02-21T15:00:01;12.10;52.80
33943;DHT22;66763;47.856;17.462;2024-02-21T15:02:28;12.10;52.80
33943;DHT22;66763;47.856;17.462;2024-02-21T15:04:53;12.10;52.80
33943;DHT22;66763;47.856;17.462;2024-02-21T15:07:19;12.00;52.70
33943;DHT22;66763;47.856;17.462;2024-02-21T15:09:45;12.10;52.80
33943;DHT22;66763;47.856;17.462;2024-02-21T15:12:10;12.10;52.80
33943;DHT22;66763;47.856;17.462;2024-02-21T15:14:36;12.00;52.70